Capon Bridge, West Virginia
Current Conditions -  °F | °C
As of 9:35 PM on Wednesday 22 Oct 2014 (Local Time) from KOKV Reporting Station
Overcast Overcast  
Wind Chill: 11°   Ceiling: 3200
Heat Index: 11°   Visibility: 10mi
Dew Point:   Wind: 14mph
Humidity: 58%   Direction: 320°NW
Pressure: 30.04"   Gusts: 21mph
Location:  39.3°N, 78.44°W
Report Text: KOKV 230135Z AUTO 32012G18KT 10SM OVC032 11/03 A3004 RMK AO2
Loading
Personal Weather Stations






























Interactive Weather Map
Tropical Storm Tracking
New forecast layout! Learn more

10-Day Weather Forecast

Advertisements
Track Severe Weather on mobile